Time;durP1;ratioP1;P1;durP2;ratioP2;P2;SDS_P1;SDS_P2;PMS_P1;PMS_P2;Temp;Humidity;BMP_temperature;BMP_pressure;BME280_temperature;BME280_humidity;BME280_pressure;Samples;Min_cycle;Max_cycle;Signal;HPM_P1;HPM_P2
2022/05/05 00:00:36;;;;;;;9.10;2.50;;;;;;;8.58;41.53;100959.76;88210;1273;76976;-65
2022/05/05 00:02:49;;;;;;;6.20;2.60;;;;;;;8.61;41.56;100964.45;88196;1274;83064;-65
2022/05/05 00:05:01;;;;;;;6.50;2.80;;;;;;;8.60;41.60;100963.48;88189;1274;99518;-65
2022/05/05 00:07:10;;;;;;;5.90;3.40;;;;;;;8.57;41.79;100959.34;88268;1273;87014;-66
2022/05/05 00:09:22;;;;;;;5.40;2.90;;;;;;;8.53;41.78;100957.21;88254;1274;93212;-65
2022/05/05 00:14:27;;;;;;;5.70;2.10;;;;;;;8.57;41.85;100958.74;88234;1274;83524;-65
2022/05/05 00:16:36;;;;;;;3.80;2.40;;;;;;;8.57;42.11;100958.73;88219;1274;99348;-66
2022/05/05 00:18:48;;;;;;;5.80;2.20;;;;;;;8.56;41.96;100956.78;88264;1274;87961;-65
2022/05/05 00:20:59;;;;;;;6.90;2.50;;;;;;;8.54;42.26;100958.18;88256;1274;95483;-62
2022/05/05 00:23:09;;;;;;;5.50;2.60;;;;;;;8.55;42.26;100950.91;88214;1274;80395;-60
2022/05/05 00:25:22;;;;;;;4.90;2.40;;;;;;;8.58;42.26;100951.68;88248;1274;80466;-63
2022/05/05 00:27:31;;;;;;;4.40;2.40;;;;;;;8.59;42.43;100945.80;88223;1273;98860;-61
2022/05/05 00:29:40;;;;;;;5.90;2.50;;;;;;;8.62;42.50;100944.80;88234;1274;87949;-60
2022/05/05 00:31:50;;;;;;;6.30;2.40;;;;;;;8.65;42.53;100946.59;88203;1275;95362;-60
2022/05/05 00:34:02;;;;;;;4.60;2.50;;;;;;;8.72;42.46;100948.39;88155;1274;80388;-62
2022/05/05 00:36:11;;;;;;;6.00;2.40;;;;;;;8.81;42.45;100950.43;88241;1274;83185;-68
2022/05/05 00:38:20;;;;;;;4.80;3.00;;;;;;;8.86;42.41;100951.27;88213;1274;98620;-66
2022/05/05 00:40:28;;;;;;;5.10;2.60;;;;;;;8.90;42.16;100952.54;88193;1274;89022;-66
2022/05/05 00:42:41;;;;;;;5.00;2.60;;;;;;;8.91;42.32;100949.58;88201;1274;94107;-67
2022/05/05 00:44:50;;;;;;;7.70;2.70;;;;;;;8.91;42.24;100952.16;88225;1274;77696;-66
2022/05/05 00:46:59;;;;;;;4.00;2.40;;;;;;;8.93;42.11;100950.80;88216;1275;81002;-63
2022/05/05 00:49:08;;;;;;;3.00;2.00;;;;;;;8.94;42.11;100948.87;88232;1273;99503;-66
2022/05/05 00:51:16;;;;;;;4.40;2.30;;;;;;;8.94;42.01;100948.15;88247;1274;87858;-61
2022/05/05 00:53:27;;;;;;;4.30;2.30;;;;;;;8.93;41.88;100946.45;88195;1274;95209;-61
2022/05/05 00:55:39;;;;;;;4.70;3.00;;;;;;;8.93;42.14;100947.70;88151;1274;79983;-65
2022/05/05 00:57:48;;;;;;;5.90;2.70;;;;;;;8.93;41.99;100946.81;88246;1273;80730;-67
2022/05/05 01:00:03;;;;;;;6.70;2.70;;;;;;;8.94;42.02;100947.42;88233;1274;100094;-61
2022/05/05 01:02:12;;;;;;;5.20;2.50;;;;;;;8.94;42.06;100945.61;88237;1273;89295;-60
2022/05/05 01:04:21;;;;;;;4.70;2.20;;;;;;;8.94;41.83;100943.19;88200;1274;96012;-64
2022/05/05 01:06:31;;;;;;;4.60;2.10;;;;;;;8.91;42.12;100946.64;88229;1272;77716;-68
2022/05/05 01:08:41;;;;;;;5.80;2.60;;;;;;;8.88;41.98;100943.71;88247;1273;80117;-65
2022/05/05 01:10:50;;;;;;;6.80;2.30;;;;;;;8.85;42.04;100946.60;88247;1274;100757;-62
2022/05/05 01:13:01;;;;;;;5.60;2.30;;;;;;;8.81;42.10;100945.38;88260;1274;87139;-61
2022/05/05 01:15:13;;;;;;;4.90;2.60;;;;;;;8.78;42.05;100947.19;88236;1274;95477;-61
2022/05/05 01:17:26;;;;;;;5.00;2.40;;;;;;;8.76;42.12;100949.54;88215;1273;78911;-61
2022/05/05 01:19:36;;;;;;;4.00;2.10;;;;;;;8.75;42.15;100951.77;88277;1274;80958;-66
2022/05/05 01:21:53;;;;;;;4.30;2.70;;;;;;;8.74;42.15;100948.90;88228;1274;99335;-65
2022/05/05 01:24:06;;;;;;;4.00;2.40;;;;;;;8.75;42.28;100946.27;88244;1274;89137;-61
2022/05/05 01:28:46;;;;;;;4.00;2.10;;;;;;;8.78;42.23;100943.15;88208;1274;77999;-62
2022/05/05 01:30:55;;;;;;;4.30;2.10;;;;;;;8.77;42.23;100946.57;88256;1274;81893;-63
2022/05/05 01:33:12;;;;;;;5.40;2.20;;;;;;;8.77;42.13;100944.59;88230;1274;99051;-62
2022/05/05 01:35:24;;;;;;;6.30;2.40;;;;;;;8.79;42.20;100948.34;88262;1274;89252;-67
2022/05/05 01:37:36;;;;;;;6.40;2.60;;;;;;;8.78;41.99;100949.31;88245;1274;94180;-66
2022/05/05 01:39:48;;;;;;;5.60;2.80;;;;;;;8.77;42.06;100949.20;88226;1274;82004;-65
2022/05/05 01:41:56;;;;;;;5.60;2.20;;;;;;;8.81;42.13;100948.95;88244;1274;81325;-65
2022/05/05 01:44:06;;;;;;;4.40;2.30;;;;;;;8.83;42.12;100949.52;88204;1274;99160;-65
2022/05/05 01:46:17;;;;;;;4.20;2.10;;;;;;;8.84;42.05;100949.15;88259;1274;89167;-66
2022/05/05 01:48:29;;;;;;;5.20;2.20;;;;;;;8.85;42.01;100946.16;88230;1274;94120;-64
2022/05/05 01:50:38;;;;;;;4.60;2.60;;;;;;;8.89;42.01;100947.22;88218;1274;77774;-65
2022/05/05 01:52:47;;;;;;;3.90;2.00;;;;;;;8.93;41.88;100949.48;88232;1274;81386;-64
2022/05/05 01:55:00;;;;;;;4.90;2.10;;;;;;;8.96;41.98;100946.48;88239;1274;97076;-65
2022/05/05 01:57:09;;;;;;;10.70;2.80;;;;;;;8.98;41.97;100949.50;88227;1273;89622;-64
2022/05/05 01:59:18;;;;;;;3.50;1.90;;;;;;;8.99;41.98;100949.90;88275;1274;94236;-65
2022/05/05 02:01:27;;;;;;;5.00;2.30;;;;;;;8.99;41.78;100948.11;88222;1274;77669;-65
2022/05/05 02:03:35;;;;;;;2.90;1.90;;;;;;;9.02;41.88;100947.84;88203;1273;80943;-65
2022/05/05 02:05:49;;;;;;;4.50;2.30;;;;;;;9.02;41.70;100949.77;88223;1273;98986;-59
2022/05/05 02:07:57;;;;;;;3.70;2.10;;;;;;;9.02;41.79;100949.27;88240;1273;88147;-61
2022/05/05 02:10:07;;;;;;;4.30;2.00;;;;;;;9.03;41.78;100945.33;88213;1273;93591;-61
2022/05/05 02:12:16;;;;;;;3.40;1.90;;;;;;;9.06;41.68;100946.52;88250;1273;77790;-60
2022/05/05 02:14:28;;;;;;;4.00;2.20;;;;;;;9.07;41.56;100939.50;88245;1274;83658;-61
2022/05/05 02:16:36;;;;;;;5.20;1.90;;;;;;;9.10;41.46;100940.82;88221;1274;98338;-59
2022/05/05 02:18:45;;;;;;;6.50;2.20;;;;;;;9.15;41.37;100942.84;88217;1273;86905;-63
2022/05/05 02:20:53;;;;;;;6.50;2.10;;;;;;;9.16;41.31;100938.34;88224;1273;93389;-60
2022/05/05 02:23:02;;;;;;;7.50;1.70;;;;;;;9.18;41.30;100940.08;88201;1273;78802;-62
2022/05/05 02:25:12;;;;;;;4.10;2.10;;;;;;;9.20;41.33;100941.17;88230;1273;83426;-63
2022/05/05 02:27:20;;;;;;;4.70;2.20;;;;;;;9.23;41.28;100941.75;88247;1273;97775;-61
2022/05/05 02:29:32;;;;;;;3.20;2.20;;;;;;;9.24;41.16;100938.40;88249;1274;88228;-65
2022/05/05 02:31:44;;;;;;;5.00;2.20;;;;;;;9.25;41.16;100936.64;88225;1274;94476;-66
2022/05/05 02:33:53;;;;;;;2.80;2.00;;;;;;;9.26;41.12;100937.07;88243;1273;77467;-67
2022/05/05 02:38:47;;;;;;;5.20;2.50;;;;;;;9.29;41.13;100931.86;88195;1273;99549;-66
2022/05/05 02:40:56;;;;;;;3.40;1.80;;;;;;;9.30;40.95;100932.14;88249;1272;89607;-60
2022/05/05 02:43:06;;;;;;;5.10;2.80;;;;;;;9.31;40.94;100934.91;88230;1273;93997;-61
2022/05/05 02:45:15;;;;;;;3.20;2.00;;;;;;;9.31;41.03;100930.15;88223;1273;78098;-61
2022/05/05 02:47:24;;;;;;;3.40;2.30;;;;;;;9.33;40.92;100933.09;88231;1273;80736;-61
2022/05/05 02:49:36;;;;;;;4.30;1.90;;;;;;;9.33;41.02;100931.98;88202;1273;100194;-60
2022/05/05 02:51:45;;;;;;;4.40;2.30;;;;;;;9.33;40.97;100930.20;88238;1273;89143;-60
2022/05/05 02:56:23;;;;;;;4.20;2.30;;;;;;;9.35;40.90;100931.37;88201;1273;80098;-60
2022/05/05 02:58:32;;;;;;;4.10;2.50;;;;;;;9.36;40.95;100931.27;88231;1273;82014;-61
2022/05/05 03:00:41;;;;;;;4.20;2.30;;;;;;;9.36;40.83;100933.96;88224;1273;99671;-66
2022/05/05 03:02:50;;;;;;;4.30;2.10;;;;;;;9.36;40.89;100936.96;88225;1273;88927;-66
2022/05/05 03:04:58;;;;;;;4.20;2.30;;;;;;;9.39;40.91;100935.48;88194;1274;93480;-60
2022/05/05 03:07:08;;;;;;;4.20;2.00;;;;;;;9.38;40.85;100939.33;88200;1273;78917;-60
2022/05/05 03:09:20;;;;;;;4.10;2.30;;;;;;;9.39;40.76;100941.17;88240;1273;80343;-60
2022/05/05 03:11:29;;;;;;;4.30;2.50;;;;;;;9.41;40.76;100936.33;88218;1273;100343;-61
2022/05/05 03:13:38;;;;;;;6.40;2.70;;;;;;;9.42;40.75;100937.66;88165;1273;89805;-61
2022/05/05 03:15:52;;;;;;;4.80;2.30;;;;;;;9.42;40.93;100938.48;88181;1274;94123;-65
2022/05/05 03:18:05;;;;;;;5.20;2.30;;;;;;;9.42;40.87;100940.88;88194;1274;77604;-65
2022/05/05 03:20:15;;;;;;;4.40;2.20;;;;;;;9.42;40.90;100933.79;88212;1274;80906;-66
2022/05/05 03:22:28;;;;;;;4.90;2.00;;;;;;;9.43;40.62;100936.96;88209;1274;99208;-65
2022/05/05 03:24:40;;;;;;;6.40;1.90;;;;;;;9.43;40.67;100932.95;88186;1274;89022;-65
2022/05/05 03:26:49;;;;;;;3.30;1.90;;;;;;;9.44;40.63;100935.95;88192;1274;95130;-65
2022/05/05 03:28:59;;;;;;;4.50;2.20;;;;;;;9.43;40.67;100940.14;88194;1274;77737;-65
2022/05/05 03:31:09;;;;;;;4.80;2.20;;;;;;;9.44;40.69;100937.61;88157;1274;82382;-62
2022/05/05 03:33:18;;;;;;;3.90;2.00;;;;;;;9.44;40.73;100938.29;88160;1274;98669;-65
2022/05/05 03:35:32;;;;;;;4.60;2.10;;;;;;;9.44;40.69;100940.30;88218;1274;89174;-61
2022/05/05 03:37:44;;;;;;;4.90;2.30;;;;;;;9.44;40.67;100940.11;88175;1274;95903;-60
2022/05/05 03:39:53;;;;;;;4.60;2.30;;;;;;;9.45;40.72;100939.66;88203;1273;79963;-67
2022/05/05 03:42:07;;;;;;;4.50;2.20;;;;;;;9.46;40.69;100944.38;88213;1273;79888;-66
2022/05/05 03:44:16;;;;;;;3.40;2.00;;;;;;;9.47;40.63;100951.43;87609;1273;853646;-60
2022/05/05 03:46:27;;;;;;;3.50;2.00;;;;;;;9.48;40.69;100952.57;88140;1273;89079;-60
2022/05/05 03:48:39;;;;;;;4.60;2.10;;;;;;;9.49;40.77;100953.73;88184;1273;94663;-61
2022/05/05 03:50:48;;;;;;;7.60;2.10;;;;;;;9.49;40.65;100957.33;88254;1273;77832;-60
2022/05/05 03:52:58;;;;;;;6.50;2.40;;;;;;;9.50;40.68;100952.20;88219;1273;82473;-59
2022/05/05 03:55:09;;;;;;;3.30;2.30;;;;;;;9.50;40.69;100956.64;88236;1273;97501;-60
2022/05/05 03:57:18;;;;;;;3.70;2.00;;;;;;;9.52;40.67;100954.73;88204;1273;87317;-61
2022/05/05 03:59:27;;;;;;;6.80;2.20;;;;;;;9.52;40.85;100956.15;88206;1273;97433;-60
2022/05/05 04:01:36;;;;;;;5.30;2.50;;;;;;;9.51;40.80;100953.67;88217;1273;78941;-60
2022/05/05 04:03:45;;;;;;;6.50;2.20;;;;;;;9.53;40.88;100951.36;88239;1273;82929;-60
2022/05/05 04:05:57;;;;;;;6.50;2.80;;;;;;;9.53;40.91;100953.98;88168;1274;101504;-61
2022/05/05 04:08:10;;;;;;;4.70;2.10;;;;;;;9.54;40.87;100954.12;88210;1273;88106;-61
2022/05/05 04:10:22;;;;;;;4.60;2.30;;;;;;;9.54;40.85;100957.83;88214;1273;94722;-66
2022/05/05 04:12:34;;;;;;;4.00;2.00;;;;;;;9.53;40.98;100957.02;88217;1273;78791;-66
2022/05/05 04:14:43;;;;;;;5.10;2.20;;;;;;;9.53;41.04;100961.17;88243;1273;80598;-66
2022/05/05 04:16:52;;;;;;;11.30;2.50;;;;;;;9.53;40.96;100957.09;88210;1273;99362;-65
2022/05/05 04:19:03;;;;;;;7.30;2.70;;;;;;;9.52;41.12;100954.46;88233;1273;88786;-63
2022/05/05 04:21:12;;;;;;;4.00;2.80;;;;;;;9.52;41.08;100955.95;88153;1274;95614;-65
2022/05/05 04:23:24;;;;;;;5.50;2.50;;;;;;;9.52;40.92;100955.44;88178;1273;78862;-65
2022/05/05 04:25:36;;;;;;;4.30;2.40;;;;;;;9.54;41.06;100956.95;88232;1273;81853;-64
2022/05/05 04:27:50;;;;;;;6.40;2.60;;;;;;;9.53;41.26;100957.46;88223;1273;97533;-64
2022/05/05 04:30:00;;;;;;;5.60;2.40;;;;;;;9.54;41.12;100958.06;88232;1273;89488;-65
2022/05/05 04:32:13;;;;;;;5.30;2.70;;;;;;;9.54;41.25;100961.11;88197;1273;95190;-66
2022/05/05 04:34:22;;;;;;;4.90;2.80;;;;;;;9.55;41.26;100956.72;88230;1273;77978;-64
2022/05/05 04:36:34;;;;;;;6.30;2.70;;;;;;;9.56;41.22;100960.56;88215;1273;82818;-65
2022/05/05 04:38:44;;;;;;;5.70;2.70;;;;;;;9.57;41.27;100961.13;88205;1273;99669;-65
2022/05/05 04:40:53;;;;;;;4.20;2.50;;;;;;;9.58;41.20;100959.08;88233;1273;89119;-65
2022/05/05 04:43:01;;;;;;;5.00;2.70;;;;;;;9.58;41.27;100958.88;88176;1273;95581;-65
2022/05/05 04:45:13;;;;;;;6.30;3.10;;;;;;;9.58;41.33;100960.09;88209;1273;78426;-60
2022/05/05 04:47:22;;;;;;;6.10;2.30;;;;;;;9.59;41.31;100964.33;88232;1273;82893;-59
2022/05/05 04:49:32;;;;;;;7.70;3.40;;;;;;;9.58;41.40;100958.17;88202;1273;100124;-65
2022/05/05 04:51:40;;;;;;;5.40;2.60;;;;;;;9.60;41.43;100955.23;88159;1274;89300;-67
2022/05/05 04:53:49;;;;;;;5.00;2.40;;;;;;;9.63;41.39;100957.35;88183;1273;95355;-67
2022/05/05 04:55:58;;;;;;;7.40;2.90;;;;;;;9.64;41.46;100957.28;88194;1273;77912;-61
2022/05/05 04:58:06;;;;;;;4.30;2.50;;;;;;;9.67;41.50;100960.55;88217;1273;82281;-61
2022/05/05 05:00:18;;;;;;;5.30;2.80;;;;;;;9.70;41.47;100961.66;88218;1273;99660;-60
2022/05/05 05:02:26;;;;;;;6.70;2.80;;;;;;;9.73;41.48;100962.73;88217;1273;88299;-60
2022/05/05 05:04:35;;;;;;;4.20;2.30;;;;;;;9.77;41.63;100964.08;88169;1273;96096;-70
2022/05/05 05:06:44;;;;;;;6.20;2.50;;;;;;;9.82;41.58;100961.85;88205;1273;78417;-68
2022/05/05 05:08:56;;;;;;;4.90;2.60;;;;;;;9.88;41.57;100965.02;88236;1273;81641;-62
2022/05/05 05:11:08;;;;;;;5.60;3.20;;;;;;;9.95;41.47;100966.88;88212;1273;98531;-66
2022/05/05 05:13:17;;;;;;;4.00;2.50;;;;;;;10.04;41.56;100965.20;88212;1273;89111;-67
2022/05/05 05:15:27;;;;;;;5.20;3.10;;;;;;;10.15;41.54;100967.92;88196;1273;94861;-67
2022/05/05 05:17:39;;;;;;;6.40;2.90;;;;;;;10.22;41.46;100972.24;88204;1273;78997;-62
2022/05/05 05:19:49;;;;;;;5.00;2.60;;;;;;;10.27;41.39;100967.79;88228;1273;81388;-61
2022/05/05 05:22:01;;;;;;;8.10;2.80;;;;;;;10.33;41.27;100966.36;88193;1273;98007;-64
2022/05/05 05:24:12;;;;;;;6.10;2.70;;;;;;;10.39;41.30;100972.72;88249;1273;89631;-65
2022/05/05 05:26:24;;;;;;;4.90;2.80;;;;;;;10.47;41.36;100968.53;88214;1273;94496;-66
2022/05/05 05:28:32;;;;;;;6.10;2.80;;;;;;;10.53;41.10;100970.04;88188;1273;78377;-66
2022/05/05 05:30:41;;;;;;;7.40;3.10;;;;;;;10.55;41.10;100967.45;88252;1273;80597;-66
2022/05/05 05:32:50;;;;;;;6.90;3.00;;;;;;;10.57;41.13;100972.09;88201;1273;98113;-67
2022/05/05 05:34:59;;;;;;;4.80;2.90;;;;;;;10.63;41.05;100976.64;88233;1273;89186;-66
2022/05/05 05:37:09;;;;;;;6.50;2.70;;;;;;;10.65;41.10;100974.03;88202;1273;94591;-65
2022/05/05 05:39:17;;;;;;;5.30;3.20;;;;;;;10.75;41.09;100972.30;88207;1273;78834;-66
2022/05/05 05:41:27;;;;;;;6.40;2.70;;;;;;;10.82;41.05;100970.95;88224;1273;82203;-67
2022/05/05 05:43:37;;;;;;;5.60;2.90;;;;;;;10.89;40.87;100968.73;88201;1273;100537;-65
2022/05/05 05:45:49;;;;;;;5.50;2.60;;;;;;;11.00;40.93;100974.49;88199;1274;86610;-65
2022/05/05 05:48:01;;;;;;;4.80;2.70;;;;;;;11.17;40.87;100972.30;88220;1273;94788;-68
2022/05/05 05:50:12;;;;;;;5.50;2.90;;;;;;;11.38;40.74;100966.89;88245;1273;79241;-66
2022/05/05 05:52:21;;;;;;;6.70;3.40;;;;;;;11.59;40.55;100967.48;88228;1274;80597;-66
2022/05/05 05:54:30;;;;;;;5.70;2.90;;;;;;;11.79;40.31;100971.23;88204;1273;99156;-61
2022/05/05 05:56:40;;;;;;;5.90;3.50;;;;;;;12.05;40.25;100970.36;88233;1273;88401;-61
2022/05/05 05:58:48;;;;;;;6.10;2.80;;;;;;;12.35;40.05;100971.42;88187;1273;94056;-61
2022/05/05 06:00:57;;;;;;;7.40;2.80;;;;;;;12.55;39.72;100966.98;88179;1273;79127;-61
2022/05/05 06:05:45;;;;;;;7.90;3.90;;;;;;;13.40;39.36;100966.34;88054;1277;102401;-67
2022/05/05 06:07:57;;;;;;;5.80;2.90;;;;;;;14.03;39.00;100962.12;88047;1277;88056;-65
2022/05/05 06:10:07;;;;;;;8.90;3.20;;;;;;;15.36;38.49;100961.04;88015;1277;94026;-61
2022/05/05 06:12:16;;;;;;;7.70;2.80;;;;;;;16.50;37.21;100960.73;88077;1277;77514;-62
2022/05/05 06:14:28;;;;;;;8.00;3.50;;;;;;;17.71;36.09;100961.08;88001;1277;81727;-67
2022/05/05 06:16:40;;;;;;;5.20;3.50;;;;;;;18.27;35.28;100960.75;88002;1277;99482;-67
2022/05/05 06:18:49;;;;;;;5.20;3.00;;;;;;;18.45;34.51;100962.79;88072;1279;86937;-66
2022/05/05 06:20:58;;;;;;;7.20;3.30;;;;;;;17.96;33.33;100961.45;88010;1277;93661;-67
2022/05/05 06:23:07;;;;;;;8.20;3.00;;;;;;;17.30;33.56;100964.86;88028;1277;78722;-67
2022/05/05 06:25:20;;;;;;;5.00;2.90;;;;;;;16.85;33.48;100971.81;88048;1277;82548;-63
2022/05/05 06:27:30;;;;;;;;;;;;;;;16.27;33.51;100968.80;88059;1277;99424;-61
2022/05/05 06:29:42;;;;;;;5.20;2.80;;;;;;;15.78;34.10;100966.41;88112;1273;87552;-62
2022/05/05 06:31:50;;;;;;;7.60;3.00;;;;;;;15.45;34.22;100968.08;88211;1273;95555;-64
2022/05/05 06:34:03;;;;;;;5.80;3.20;;;;;;;15.42;34.72;100967.24;88191;1273;78962;-63
2022/05/05 06:36:12;;;;;;;4.30;2.90;;;;;;;15.33;34.71;100968.25;88223;1273;80833;-62
2022/05/05 06:38:24;;;;;;;9.20;3.10;;;;;;;15.48;35.12;100966.16;88225;1273;99753;-62
2022/05/05 06:40:35;;;;;;;6.30;3.40;;;;;;;16.08;35.13;100969.51;88197;1274;88481;-68
2022/05/05 06:42:43;;;;;;;6.10;3.30;;;;;;;16.66;34.54;100971.41;88188;1273;95867;-67
2022/05/05 06:44:56;;;;;;;6.60;3.10;;;;;;;17.76;33.73;100962.58;88191;1273;79078;-65
2022/05/05 06:47:05;;;;;;;7.30;2.60;;;;;;;18.49;33.17;100961.45;88235;1273;81943;-67
2022/05/05 06:49:13;;;;;;;5.70;2.90;;;;;;;19.44;32.23;100964.42;88179;1274;98914;-62
2022/05/05 06:51:23;;;;;;;5.40;3.00;;;;;;;19.70;31.75;100960.45;88199;1273;87819;-62
2022/05/05 06:53:32;;;;;;;6.90;3.50;;;;;;;19.50;31.18;100963.10;88212;1273;93578;-63
2022/05/05 06:55:41;;;;;;;7.10;3.30;;;;;;;18.98;31.15;100969.63;88202;1273;80425;-61
2022/05/05 06:57:53;;;;;;;6.60;3.00;;;;;;;18.50;31.48;100971.92;88209;1273;81261;-66
2022/05/05 07:00:02;;;;;;;4.90;3.00;;;;;;;17.75;31.77;100972.98;88224;1273;100318;-61
2022/05/05 07:02:12;;;;;;;6.70;3.40;;;;;;;17.49;32.16;100981.86;88212;1272;88830;-61
2022/05/05 07:06:47;;;;;;;6.40;3.70;;;;;;;17.29;32.75;100983.68;88185;1273;80336;-61
2022/05/05 07:11:23;;;;;;;10.40;3.60;;;;;;;17.21;33.17;100980.08;88184;1273;99507;-67
2022/05/05 07:13:35;;;;;;;8.80;3.60;;;;;;;17.16;33.22;100982.46;88196;1273;89039;-65
2022/05/05 07:15:44;;;;;;;6.90;2.80;;;;;;;17.16;33.37;100983.65;88230;1273;94450;-61
2022/05/05 07:17:54;;;;;;;6.50;2.90;;;;;;;17.30;33.55;100979.48;88183;1273;80141;-62
2022/05/05 07:20:07;;;;;;;8.40;3.30;;;;;;;17.30;33.47;100977.51;88244;1273;81970;-66
2022/05/05 07:22:15;;;;;;;7.40;3.00;;;;;;;17.24;33.38;100977.30;88218;1273;98138;-68
2022/05/05 07:24:29;;;;;;;6.90;3.10;;;;;;;17.21;33.49;100973.86;88209;1273;87554;-66
2022/05/05 07:26:39;;;;;;;8.70;3.00;;;;;;;17.17;33.51;100974.68;88203;1273;95468;-66
2022/05/05 07:28:49;;;;;;;5.80;3.20;;;;;;;17.09;33.61;100976.06;88207;1274;82148;-66
2022/05/05 07:30:58;;;;;;;4.50;2.60;;;;;;;16.97;33.63;100981.33;88226;1273;80839;-65
2022/05/05 07:33:09;;;;;;;5.40;2.70;;;;;;;16.74;33.58;100978.70;88213;1273;99676;-66
2022/05/05 07:35:18;;;;;;;7.00;3.10;;;;;;;16.70;34.03;100976.83;88238;1273;87392;-61
2022/05/05 07:37:32;;;;;;;8.00;2.80;;;;;;;16.94;34.03;100981.45;88217;1273;97175;-60
2022/05/05 07:39:44;;;;;;;6.60;3.40;;;;;;;17.09;33.95;100983.58;88176;1273;79144;-65
2022/05/05 07:41:56;;;;;;;8.00;3.10;;;;;;;17.94;34.41;100972.05;88203;1273;79488;-67
2022/05/05 07:44:08;;;;;;;5.60;3.10;;;;;;;18.36;33.18;100974.75;88185;1274;99571;-65
2022/05/05 07:46:18;;;;;;;6.30;3.00;;;;;;;18.13;32.85;100973.59;88199;1273;88586;-67
2022/05/05 07:48:30;;;;;;;5.00;3.00;;;;;;;18.32;33.22;100971.94;88193;1273;96032;-61
2022/05/05 07:50:43;;;;;;;6.50;3.10;;;;;;;18.86;32.97;100967.60;88214;1273;80319;-69
2022/05/05 07:52:56;;;;;;;5.10;3.10;;;;;;;19.14;32.54;100963.70;88248;1273;81693;-64
2022/05/05 07:55:09;;;;;;;7.80;3.00;;;;;;;19.48;32.44;100969.69;88170;1274;99869;-61
2022/05/05 07:57:20;;;;;;;5.60;3.40;;;;;;;19.95;31.85;100962.90;88211;1273;87029;-62
2022/05/05 07:59:29;;;;;;;6.10;3.00;;;;;;;20.36;31.30;100965.14;88209;1273;95562;-61
2022/05/05 08:01:38;;;;;;;8.00;3.50;;;;;;;20.63;31.16;100966.39;88173;1273;77387;-62
2022/05/05 08:03:47;;;;;;;5.10;2.80;;;;;;;21.09;30.94;100965.75;88202;1273;80685;-65
2022/05/05 08:05:56;;;;;;;7.70;3.30;;;;;;;21.39;30.48;100965.44;88163;1273;99525;-64
2022/05/05 08:08:08;;;;;;;4.00;2.70;;;;;;;21.48;29.89;100965.30;88194;1273;87355;-65
2022/05/05 08:10:21;;;;;;;6.40;3.10;;;;;;;21.96;30.32;100957.92;88197;1270;94883;-63
2022/05/05 08:12:31;;;;;;;8.80;3.50;;;;;;;22.55;29.42;100959.23;88216;1273;79210;-61
2022/05/05 08:14:43;;;;;;;7.10;3.40;;;;;;;22.20;28.90;100958.66;88213;1273;79729;-64
2022/05/05 08:16:55;;;;;;;6.50;3.30;;;;;;;22.20;29.08;100953.49;88195;1273;98146;-66
2022/05/05 08:19:07;;;;;;;6.90;3.00;;;;;;;23.22;29.27;100953.43;88184;1273;89578;-65
2022/05/05 08:21:16;;;;;;;6.00;2.70;;;;;;;24.44;28.20;100957.35;88197;1273;95078;-66
2022/05/05 08:23:25;;;;;;;5.70;3.10;;;;;;;25.14;27.35;100960.27;88187;1273;80822;-66
2022/05/05 08:30:29;;;;;;;6.40;3.00;;;;;;;25.50;25.76;100955.59;88210;1273;89140;-62
2022/05/05 08:32:41;;;;;;;6.10;3.30;;;;;;;25.87;25.43;100948.56;88172;1274;96101;-62
2022/05/05 08:34:53;;;;;;;6.20;3.10;;;;;;;26.39;25.47;100944.48;88204;1273;80143;-69
2022/05/05 08:37:06;;;;;;;5.40;3.20;;;;;;;26.65;25.02;100943.30;88191;1273;83323;-66
2022/05/05 08:39:16;;;;;;;;;;;;;;;26.57;24.74;100942.48;88251;1273;99795;-62
2022/05/05 08:41:26;;;;;;;4.90;3.30;;;;;;;26.55;24.63;100941.40;88205;1273;88709;-62
2022/05/05 08:43:35;;;;;;;4.90;3.20;;;;;;;26.57;24.69;100941.34;88183;1274;94029;-65
2022/05/05 08:45:46;;;;;;;4.80;3.20;;;;;;;26.97;24.87;100942.38;88218;1273;78739;-61
2022/05/05 08:48:00;;;;;;;4.50;3.50;;;;;;;27.25;23.54;100944.50;88208;1273;82423;-62
2022/05/05 08:50:13;;;;;;;3.80;3.10;;;;;;;26.83;23.41;100942.16;88217;1273;99859;-62
2022/05/05 08:52:25;;;;;;;7.90;3.40;;;;;;;26.94;23.84;100942.83;88217;1273;89309;-64
2022/05/05 08:54:39;;;;;;;6.30;3.40;;;;;;;27.00;23.83;100945.02;88209;1273;93535;-65
2022/05/05 08:56:52;;;;;;;5.20;3.30;;;;;;;27.00;23.71;100947.75;88184;1273;80832;-65
2022/05/05 08:59:05;;;;;;;7.50;3.80;;;;;;;27.11;23.56;100945.31;88201;1274;81458;-64
2022/05/05 09:01:14;;;;;;;5.10;3.20;;;;;;;26.66;23.25;100944.31;88202;1273;99151;-64
2022/05/05 09:03:23;;;;;;;5.90;2.70;;;;;;;26.15;23.62;100939.86;88186;1274;87775;-65
2022/05/05 09:05:51;;;;;;;9.20;3.40;;;;;;;25.85;23.97;100942.58;88196;1273;95910;-67
2022/05/05 09:08:00;;;;;;;6.70;3.10;;;;;;;25.40;24.05;100944.68;88208;1273;80377;-66
2022/05/05 09:10:11;;;;;;;5.30;3.00;;;;;;;25.28;24.42;100945.25;88208;1273;82129;-61
2022/05/05 09:12:23;;;;;;;6.90;3.20;;;;;;;25.04;24.33;100947.01;88213;1273;97183;-60
2022/05/05 09:14:40;;;;;;;5.50;3.00;;;;;;;24.66;24.75;100945.21;88209;1273;88329;-65
2022/05/05 09:16:53;;;;;;;3.10;2.20;;;;;;;24.65;25.49;100940.51;88213;1273;95234;-63
2022/05/05 09:19:10;;;;;;;7.70;2.60;;;;;;;24.89;25.65;100944.07;88171;1273;80658;-61
2022/05/05 09:21:32;;;;;;;6.90;3.00;;;;;;;24.58;25.30;100946.27;88224;1273;83300;-62
2022/05/05 09:26:10;;;;;;;5.90;2.50;;;;;;;23.60;25.55;100947.61;88187;1273;89105;-62
2022/05/05 09:28:26;;;;;;;5.10;2.60;;;;;;;23.16;26.41;100939.80;88173;1274;95869;-63
2022/05/05 09:30:48;;;;;;;4.80;2.60;;;;;;;23.02;26.98;100941.58;88211;1273;80146;-64
2022/05/05 09:32:57;;;;;;;4.80;2.60;;;;;;;23.19;27.09;100939.11;88232;1273;82763;-62
2022/05/05 09:35:13;;;;;;;7.10;2.40;;;;;;;23.04;27.21;100940.44;88175;1274;98820;-61
2022/05/05 09:37:25;;;;;;;4.80;2.60;;;;;;;23.03;27.48;100941.02;88210;1273;87837;-62
2022/05/05 09:39:40;;;;;;;3.80;2.50;;;;;;;22.62;27.47;100947.65;88209;1273;94390;-66
2022/05/05 09:41:54;;;;;;;3.40;2.30;;;;;;;22.53;27.42;100939.80;88201;1273;78630;-66
2022/05/05 09:44:14;;;;;;;3.10;2.20;;;;;;;22.44;27.88;100936.84;88203;1273;83403;-63
2022/05/05 09:46:36;;;;;;;6.50;2.60;;;;;;;22.41;28.01;100930.56;88205;1273;100133;-66
2022/05/05 09:48:45;;;;;;;5.10;2.80;;;;;;;22.69;28.68;100927.88;88206;1273;88020;-66
2022/05/05 09:50:54;;;;;;;4.10;2.20;;;;;;;22.80;28.22;100931.62;88175;1274;95858;-62
2022/05/05 09:58:00;;;;;;;4.70;1.90;;;;;;;22.51;28.87;100927.29;88205;1273;99550;-62
2022/05/05 10:00:44;;;;;;;5.40;2.10;;;;;;;22.69;28.92;100928.11;88214;1273;86933;-65
2022/05/05 10:05:24;;;;;;;5.50;2.30;;;;;;;22.27;27.94;100925.52;88209;1273;79158;-64
2022/05/05 10:07:39;;;;;;;5.10;2.20;;;;;;;22.38;28.41;100923.63;88171;1273;82317;-62
2022/05/05 10:09:53;;;;;;;4.00;2.20;;;;;;;22.35;28.17;100923.20;88222;1273;100061;-62
2022/05/05 10:12:02;;;;;;;4.20;2.50;;;;;;;22.45;28.52;100922.08;88213;1273;89096;-62
2022/05/05 10:14:14;;;;;;;6.30;2.30;;;;;;;22.64;28.77;100921.05;88197;1273;95729;-62
2022/05/05 10:16:26;;;;;;;5.00;1.90;;;;;;;22.93;28.67;100920.69;88209;1273;78467;-64
2022/05/05 10:18:38;;;;;;;4.10;2.00;;;;;;;23.09;28.84;100916.02;88208;1273;80431;-65
2022/05/05 10:20:50;;;;;;;5.00;2.30;;;;;;;23.19;28.38;100914.76;88223;1273;97478;-67
2022/05/05 10:23:09;;;;;;;8.70;2.90;;;;;;;23.08;27.86;100915.08;88196;1274;89314;-65
2022/05/05 10:25:23;;;;;;;5.50;2.30;;;;;;;22.93;27.83;100910.23;88184;1273;94919;-62
2022/05/05 10:27:41;;;;;;;5.10;2.30;;;;;;;22.34;27.02;100915.21;88235;1273;79073;-62
2022/05/05 10:29:50;;;;;;;5.90;2.10;;;;;;;21.96;27.60;100911.85;88238;1273;81827;-68
2022/05/05 10:32:09;;;;;;;4.30;2.00;;;;;;;21.70;27.88;100907.27;88203;1273;98823;-66
2022/05/05 10:34:22;;;;;;;5.60;2.10;;;;;;;21.56;28.41;100906.31;88233;1273;87741;-66
2022/05/05 10:36:32;;;;;;;7.10;2.80;;;;;;;21.56;28.57;100905.42;88194;1274;93367;-67
2022/05/05 10:38:45;;;;;;;5.10;2.10;;;;;;;21.30;28.91;100906.23;88195;1273;78703;-67
2022/05/05 10:40:58;;;;;;;3.90;1.90;;;;;;;21.49;29.01;100900.70;88191;1274;81713;-61
2022/05/05 10:43:11;;;;;;;3.20;1.70;;;;;;;21.84;28.83;100896.83;88244;1273;99970;-67
2022/05/05 10:45:32;;;;;;;3.60;2.30;;;;;;;21.99;28.21;100906.44;88183;1273;88668;-66